Alexander von Humboldt II — DDKK2 — position and weather

sailwx.info

Track history (hours):
 
Tides and Currents Weather Stations Pressure Air Temp Water Temp Dewpoint Dewpoint Depression Visibility Wind Speed Wind Dir Waves Ship Positions

Alexander von Humboldt II

Ship's website: https://www.alex-2.de/en/

Last reported at 2017-May-17 15:36 UTC. Time now 2017-May-28 08:33 UTC.
Position N 32°35' W 079°29'.
Warning: this ship's position is 10 days out of date.

Length 65 m; draft 4.6 m.

Type: Sailing vessel. MMSI: 218768000.

Date/timePositionNaut miles runAvg speedWind from/ knotsBaromVisibWave heightAir tempDewpointWater temp
2017-May-17 15:36N 32°35' W 079°29'4 3.5
2017-May-17 14:23N 32°32' W 079°26'11 4.7
2017-May-17 12:04N 32°26' W 079°15'1 5.0
2017-May-17 11:50N 32°26' W 079°13'2 5.0
2017-May-17 11:30N 32°25' W 079°12'2 4.9
2017-May-17 11:01N 32°24' W 079°09'2 4.8
2017-May-17 10:31N 32°22' W 079°07'82 3.0
2017-May-16 06:55N 31°38' W 077°45'1 3.1
2017-May-16 06:26N 31°39' W 077°46'1 3.0
2017-May-16 06:01N 31°40' W 077°48'1 2.8
2017-May-16 05:30N 31°41' W 077°49'2 3.0
2017-May-16 04:58N 31°42' W 077°51'1 2.9
2017-May-16 04:31N 31°42' W 077°52'1 2.8
2017-May-16 04:01N 31°43' W 077°53'47 2.9
2017-May-15 11:35N 31°52' W 078°48'1 4.5
2017-May-15 11:22N 31°52' W 078°49'16 4.4
2017-May-15 07:47N 31°43' W 079°04'1 4.6
2017-May-15 07:30N 31°42' W 079°06'158 4.3
2017-May-13 19:00N 29°06' W 079°30'131 6.6 190 / 191011.810.8 27.021.626.9
2017-May-12 23:17N 26°56' W 079°41'2 8.7
2017-May-12 23:00N 26°54' W 079°40'57 2.8
2017-May-12 02:50N 26°04' W 079°09'0 0.0
2017-May-12 02:20N 26°04' W 079°09'0 0.0
2017-May-12 01:59N 26°04' W 079°09'0 0.0
2017-May-12 01:17N 26°04' W 079°09'0 0.0
2017-May-12 00:14N 26°04' W 079°09'0 0.0
2017-May-11 23:50N 26°04' W 079°09'0 0.0
2017-May-11 23:29N 26°04' W 079°09'0 0.0
2017-May-11 22:59N 26°04' W 079°09'0 0.0
2017-May-11 22:26N 26°04' W 079°09'0 0.0
2017-May-11 21:59N 26°04' W 079°09'0 0.0
2017-May-11 21:26N 26°04' W 079°09'0 0.0
2017-May-11 13:44N 26°04' W 079°09'0 0.0
2017-May-11 13:11N 26°04' W 079°09'32 1.1
2017-May-10 07:48N 25°41' W 079°35'  
Track history (hours):
 
Tides and Currents Weather Stations Pressure Air Temp Water Temp Dewpoint Dewpoint Depression Visibility Wind Speed Wind Dir Waves Ship Positions

Alexander von Humboldt II

Ship's website: https://www.alex-2.de/en/

Last reported at 2017-May-17 15:36 UTC. Time now 2017-May-28 08:33 UTC.
Position N 32°35' W 079°29'.
Warning: this ship's position is 10 days out of date.

Length 65 m; draft 4.6 m.

Type: Sailing vessel. MMSI: 218768000.

Date/timePositionNaut miles runAvg speedWind from/ knotsBaromVisibWave heightAir tempDewpointWater temp
2017-May-17 15:36N 32°35' W 079°29'4 3.5
2017-May-17 14:23N 32°32' W 079°26'11 4.7
2017-May-17 12:04N 32°26' W 079°15'1 5.0
2017-May-17 11:50N 32°26' W 079°13'2 5.0
2017-May-17 11:30N 32°25' W 079°12'2 4.9
2017-May-17 11:01N 32°24' W 079°09'2 4.8
2017-May-17 10:31N 32°22' W 079°07'82 3.0
2017-May-16 06:55N 31°38' W 077°45'1 3.1
2017-May-16 06:26N 31°39' W 077°46'1 3.0
2017-May-16 06:01N 31°40' W 077°48'1 2.8
2017-May-16 05:30N 31°41' W 077°49'2 3.0
2017-May-16 04:58N 31°42' W 077°51'1 2.9
2017-May-16 04:31N 31°42' W 077°52'1 2.8
2017-May-16 04:01N 31°43' W 077°53'47 2.9
2017-May-15 11:35N 31°52' W 078°48'1 4.5
2017-May-15 11:22N 31°52' W 078°49'16 4.4
2017-May-15 07:47N 31°43' W 079°04'1 4.6
2017-May-15 07:30N 31°42' W 079°06'158 4.3
2017-May-13 19:00N 29°06' W 079°30'131 6.6 190 / 191011.810.8 27.021.626.9
2017-May-12 23:17N 26°56' W 079°41'2 8.7
2017-May-12 23:00N 26°54' W 079°40'57 2.8
2017-May-12 02:50N 26°04' W 079°09'0 0.0
2017-May-12 02:20N 26°04' W 079°09'0 0.0
2017-May-12 01:59N 26°04' W 079°09'0 0.0
2017-May-12 01:17N 26°04' W 079°09'0 0.0
2017-May-12 00:14N 26°04' W 079°09'0 0.0
2017-May-11 23:50N 26°04' W 079°09'0 0.0
2017-May-11 23:29N 26°04' W 079°09'0 0.0
2017-May-11 22:59N 26°04' W 079°09'0 0.0
2017-May-11 22:26N 26°04' W 079°09'0 0.0
2017-May-11 21:59N 26°04' W 079°09'0 0.0
2017-May-11 21:26N 26°04' W 079°09'0 0.0
2017-May-11 13:44N 26°04' W 079°09'0 0.0
2017-May-11 13:11N 26°04' W 079°09'32 1.1
2017-May-10 07:48N 25°41' W 079°35'  

Dump ship's entire track history